createdAt,value
2023-04-25T00:01:25.724Z,10.60
2023-04-25T00:04:12.750Z,10.30
2023-04-25T00:06:58.580Z,10.30
2023-04-25T00:09:43.966Z,10.40
2023-04-25T00:12:29.717Z,10.20
2023-04-25T00:15:15.275Z,10.20
2023-04-25T00:18:00.608Z,10.30
2023-04-25T00:20:47.561Z,10.30
2023-04-25T00:23:32.881Z,10.30
2023-04-25T00:26:18.431Z,10.30
2023-04-25T00:29:03.883Z,10.40
2023-04-25T00:31:49.362Z,10.40
2023-04-25T00:34:34.661Z,10.40
2023-04-25T00:37:20.894Z,10.50
2023-04-25T00:40:07.408Z,10.30
2023-04-25T00:42:53.914Z,10.20
2023-04-25T00:45:40.567Z,10.30
2023-04-25T00:48:26.082Z,10.30
2023-04-25T00:51:16.838Z,10.30
2023-04-25T00:54:02.645Z,10.20
2023-04-25T00:56:47.951Z,10.40
2023-04-25T00:59:34.361Z,10.40
2023-04-25T01:02:21.746Z,10.40
2023-04-25T01:05:07.093Z,10.50
2023-04-25T01:07:52.907Z,10.40
2023-04-25T01:10:38.216Z,10.40
2023-04-25T01:13:23.883Z,10.50
2023-04-25T01:16:09.268Z,10.50
2023-04-25T01:18:56.075Z,10.60
2023-04-25T01:21:41.475Z,10.50
2023-04-25T01:24:27.346Z,10.50
2023-04-25T01:27:13.402Z,10.50
2023-04-25T01:29:59.110Z,11.00
2023-04-25T01:32:44.501Z,10.50
2023-04-25T01:35:29.887Z,10.50
2023-04-25T01:38:15.888Z,10.40
2023-04-25T01:41:01.728Z,11.00
2023-04-25T01:43:47.186Z,10.40
2023-04-25T01:46:34.431Z,10.30
2023-04-25T01:49:20.505Z,10.30
2023-04-25T01:52:05.705Z,10.30
2023-04-25T01:54:52.624Z,10.40
2023-04-25T01:57:38.197Z,10.30
2023-04-25T02:00:23.995Z,10.30
2023-04-25T02:03:10.044Z,10.20
2023-04-25T02:05:55.509Z,10.40
2023-04-25T02:08:41.095Z,10.10
2023-04-25T02:11:26.592Z,10.10
2023-04-25T02:14:12.177Z,10.70
2023-04-25T02:16:58.307Z,10.30
2023-04-25T02:19:43.711Z,10.10
2023-04-25T02:22:31.389Z,10.00
2023-04-25T02:25:17.229Z,9.80
2023-04-25T02:28:02.806Z,9.60
2023-04-25T02:30:48.490Z,9.20
2023-04-25T02:33:34.163Z,10.80
2023-04-25T02:36:19.537Z,10.00
2023-04-25T02:39:05.188Z,9.50
2023-04-25T02:41:50.338Z,9.50
2023-04-25T02:44:36.187Z,9.50
2023-04-25T02:47:21.656Z,9.60
2023-04-25T02:50:07.933Z,9.90
2023-04-25T02:52:53.254Z,9.10
2023-04-25T02:55:38.834Z,11.60
2023-04-25T02:58:24.488Z,9.40
2023-04-25T03:01:09.920Z,9.40
2023-04-25T03:03:55.995Z,9.50
2023-04-25T03:06:41.874Z,10.00
2023-04-25T03:09:26.960Z,9.20
2023-04-25T03:12:12.627Z,9.30
2023-04-25T03:14:58.132Z,9.30
2023-04-25T03:17:43.931Z,9.10
2023-04-25T03:20:29.798Z,9.10
2023-04-25T03:23:15.437Z,9.10
2023-04-25T03:26:01.122Z,9.20
2023-04-25T03:28:46.246Z,9.10
2023-04-25T03:31:32.278Z,9.10
2023-04-25T03:34:17.721Z,9.10
2023-04-25T03:37:03.230Z,9.10
2023-04-25T03:39:48.811Z,9.10
2023-04-25T03:42:34.305Z,9.10
2023-04-25T03:45:20.130Z,9.00
2023-04-25T03:48:06.012Z,8.80
2023-04-25T03:50:51.906Z,8.90
2023-04-25T03:53:37.362Z,9.50
2023-04-25T03:56:22.580Z,8.80
2023-04-25T03:59:09.019Z,8.80
2023-04-25T04:01:55.090Z,8.70
2023-04-25T04:04:40.960Z,8.50
2023-04-25T04:07:26.377Z,8.40
2023-04-25T04:10:12.006Z,8.30
2023-04-25T04:12:57.488Z,7.90
2023-04-25T04:15:42.906Z,8.20
2023-04-25T04:18:28.382Z,8.20
2023-04-25T04:21:13.963Z,8.10
2023-04-25T04:24:01.104Z,8.30
2023-04-25T04:26:47.410Z,8.40
2023-04-25T04:29:32.822Z,8.50
2023-04-25T04:32:18.516Z,8.50
2023-04-25T04:35:05.325Z,8.60
2023-04-25T04:37:51.581Z,8.70
2023-04-25T04:40:37.421Z,8.70
2023-04-25T04:43:24.013Z,8.70
2023-04-25T04:46:11.246Z,8.60
2023-04-25T04:48:57.469Z,8.80
2023-04-25T04:51:45.618Z,8.70
2023-04-25T04:54:31.243Z,8.80
2023-04-25T04:57:17.630Z,8.30
2023-04-25T05:00:06.075Z,8.10
2023-04-25T05:02:51.539Z,8.20
2023-04-25T05:05:36.990Z,8.10
2023-04-25T05:08:22.375Z,8.00
2023-04-25T05:11:07.954Z,8.00
2023-04-25T05:13:54.156Z,7.90
2023-04-25T05:16:39.951Z,8.10
2023-04-25T05:19:25.465Z,8.00
2023-04-25T05:22:10.780Z,8.10
2023-04-25T05:24:56.374Z,8.10
2023-04-25T05:27:41.696Z,8.00
2023-04-25T05:30:27.154Z,8.00
2023-04-25T05:33:12.591Z,7.80
2023-04-25T05:35:58.054Z,7.90
2023-04-25T05:38:45.783Z,7.30
2023-04-25T05:41:31.013Z,8.10
2023-04-25T05:44:16.979Z,7.80
2023-04-25T05:47:02.202Z,7.50
2023-04-25T05:49:47.697Z,7.70
2023-04-25T05:52:33.330Z,7.60
2023-04-25T05:55:19.087Z,7.70
2023-04-25T05:58:04.292Z,7.70
2023-04-25T06:00:49.983Z,7.70
2023-04-25T06:03:35.479Z,7.90
2023-04-25T06:06:21.115Z,8.10
2023-04-25T06:09:06.384Z,8.70
2023-04-25T06:11:51.824Z,8.20
2023-04-25T06:14:37.028Z,8.30
2023-04-25T06:17:22.875Z,8.40
2023-04-25T06:20:09.328Z,8.60
2023-04-25T06:22:54.657Z,8.80
2023-04-25T06:25:39.978Z,9.80
2023-04-25T06:28:25.528Z,8.90
2023-04-25T06:31:11.051Z,8.90
2023-04-25T06:33:56.474Z,9.00
2023-04-25T06:36:42.610Z,8.90
2023-04-25T06:39:28.017Z,9.20
2023-04-25T06:42:13.462Z,9.00
2023-04-25T06:44:59.004Z,8.70
2023-04-25T06:47:44.495Z,8.80
2023-04-25T06:50:30.098Z,8.50
2023-04-25T06:53:15.821Z,8.70
2023-04-25T06:56:01.307Z,8.90
2023-04-25T06:58:46.831Z,9.90
2023-04-25T07:01:32.407Z,9.50
2023-04-25T07:04:18.100Z,10.00
2023-04-25T07:07:04.818Z,10.20
2023-04-25T07:09:50.362Z,10.20
2023-04-25T07:12:36.018Z,10.60
2023-04-25T07:15:21.690Z,10.60
2023-04-25T07:18:07.333Z,10.40
2023-04-25T07:20:53.042Z,11.00
2023-04-25T07:23:41.722Z,10.00
2023-04-25T07:26:27.078Z,10.60
2023-04-25T07:29:12.524Z,9.10
2023-04-25T07:31:57.942Z,8.70
2023-04-25T07:34:43.198Z,8.50
2023-04-25T07:37:28.864Z,8.10
2023-04-25T07:40:14.520Z,7.80
2023-04-25T07:42:59.802Z,7.50
2023-04-25T07:45:45.913Z,7.30
2023-04-25T07:48:31.242Z,7.90
2023-04-25T07:51:16.641Z,7.20
2023-04-25T07:54:02.044Z,6.90
2023-04-25T07:56:52.741Z,6.90
2023-04-25T07:59:39.499Z,6.80
2023-04-25T08:02:24.739Z,6.80
2023-04-25T08:05:13.222Z,6.80
2023-04-25T08:07:58.748Z,6.90
2023-04-25T08:10:43.951Z,7.00
2023-04-25T08:13:29.494Z,7.40
2023-04-25T08:16:15.154Z,7.60
2023-04-25T08:19:01.153Z,8.30
2023-04-25T08:21:46.944Z,9.30
2023-04-25T08:24:32.211Z,9.60
2023-04-25T08:27:19.920Z,9.20
2023-04-25T08:30:06.752Z,9.60
2023-04-25T08:32:52.382Z,10.40
2023-04-25T08:35:38.204Z,11.00
2023-04-25T08:38:23.507Z,12.60
2023-04-25T08:41:09.366Z,11.60
2023-04-25T08:43:56.061Z,11.30
2023-04-25T08:46:42.683Z,11.50
2023-04-25T08:49:28.399Z,11.90
2023-04-25T08:52:14.716Z,12.20
2023-04-25T08:55:02.428Z,12.10
2023-04-25T08:57:48.231Z,11.80
2023-04-25T09:00:33.840Z,11.60
2023-04-25T09:03:19.662Z,11.70
2023-04-25T09:06:05.717Z,11.30
2023-04-25T09:08:51.737Z,10.70
2023-04-25T09:11:37.815Z,10.80
2023-04-25T09:14:26.173Z,10.00
2023-04-25T09:17:14.103Z,9.90
2023-04-25T09:20:10.426Z,8.90
2023-04-25T09:23:06.481Z,8.10
2023-04-25T09:25:53.989Z,8.10
2023-04-25T09:28:39.702Z,7.50
2023-04-25T09:31:25.677Z,7.10
2023-04-25T09:34:16.618Z,7.00
2023-04-25T09:37:03.355Z,6.90
2023-04-25T09:39:50.329Z,7.00
2023-04-25T09:42:36.486Z,7.40
2023-04-25T09:45:22.198Z,7.40
2023-04-25T09:48:07.902Z,7.20
2023-04-25T09:51:06.769Z,7.90
2023-04-25T09:53:52.819Z,8.40
2023-04-25T09:56:39.088Z,8.80
2023-04-25T09:59:25.146Z,9.50
2023-04-25T10:02:11.744Z,10.10
2023-04-25T10:04:57.750Z,10.30
2023-04-25T10:07:43.738Z,10.30
2023-04-25T10:10:32.129Z,9.70
2023-04-25T10:13:17.844Z,9.30
2023-04-25T10:16:06.237Z,9.80
2023-04-25T10:18:52.807Z,10.00
2023-04-25T10:21:49.327Z,10.20
2023-04-25T10:24:37.533Z,10.80
2023-04-25T10:27:23.369Z,10.30
2023-04-25T10:30:17.057Z,10.50
2023-04-25T10:33:03.285Z,9.90
2023-04-25T10:35:48.409Z,9.90
2023-04-25T10:38:33.964Z,9.60
2023-04-25T10:41:21.434Z,9.40
2023-04-25T10:44:06.719Z,9.20
2023-04-25T10:46:52.233Z,9.20
2023-04-25T10:49:42.033Z,9.20
2023-04-25T10:52:29.287Z,9.60
2023-04-25T10:55:14.838Z,10.60
2023-04-25T10:58:02.058Z,9.90
2023-04-25T11:03:59.591Z,10.70
2023-04-25T11:07:11.943Z,11.00
2023-04-25T11:09:57.309Z,11.30
2023-04-25T11:12:42.769Z,12.20
2023-04-25T11:15:28.903Z,12.80
2023-04-25T11:18:18.172Z,12.40
2023-04-25T11:21:04.330Z,12.10
2023-04-25T11:23:49.883Z,11.10
2023-04-25T11:26:38.510Z,10.70
2023-04-25T11:29:27.988Z,10.80
2023-04-25T11:32:13.308Z,11.00
2023-04-25T11:34:59.010Z,13.40
2023-04-25T11:37:45.547Z,11.90
2023-04-25T11:40:32.139Z,12.20
2023-04-25T11:43:18.912Z,12.10
2023-04-25T11:46:10.754Z,11.70
2023-04-25T11:48:57.157Z,11.40
2023-04-25T11:51:44.379Z,11.20
2023-04-25T11:54:30.260Z,11.00
2023-04-25T11:57:15.793Z,10.70
2023-04-25T12:00:18.686Z,10.50
2023-04-25T12:03:05.050Z,10.30
2023-04-25T12:05:51.652Z,10.30
2023-04-25T12:08:37.785Z,10.70
2023-04-25T12:11:23.436Z,10.90
2023-04-25T12:14:09.018Z,11.00
2023-04-25T12:16:58.265Z,11.10
2023-04-25T12:19:45.347Z,12.00
2023-04-25T12:22:32.859Z,13.20
2023-04-25T12:25:45.606Z,13.20
2023-04-25T12:28:34.232Z,13.70
2023-04-25T12:31:19.812Z,14.60
2023-04-25T12:34:05.417Z,13.80
2023-04-25T12:36:52.093Z,13.30
2023-04-25T12:39:37.587Z,13.80
2023-04-25T12:42:23.137Z,12.90
2023-04-25T12:45:08.954Z,13.40
2023-04-25T12:47:54.497Z,14.40
2023-04-25T12:50:39.956Z,14.10
2023-04-25T12:53:25.596Z,14.40
2023-04-25T12:56:11.092Z,13.60
2023-04-25T12:58:56.869Z,14.50
2023-04-25T13:01:42.360Z,15.80
2023-04-25T13:04:27.973Z,15.90
2023-04-25T13:07:13.852Z,14.70
2023-04-25T13:09:59.050Z,15.60
2023-04-25T13:12:44.951Z,14.30
2023-04-25T13:15:30.550Z,15.30
2023-04-25T13:18:16.607Z,15.10
2023-04-25T13:21:02.532Z,14.50
2023-04-25T13:23:47.989Z,14.20
2023-04-25T13:26:33.269Z,14.90
2023-04-25T13:29:18.648Z,14.10
2023-04-25T13:32:04.299Z,13.80
2023-04-25T13:34:52.252Z,14.10
2023-04-25T13:37:38.945Z,14.00
2023-04-25T13:40:25.505Z,14.00
2023-04-25T13:43:11.502Z,14.40
2023-04-25T13:45:57.249Z,15.90
2023-04-25T13:48:47.368Z,17.40
2023-04-25T13:51:32.824Z,18.10
2023-04-25T13:54:18.644Z,18.20
2023-04-25T13:57:04.045Z,18.30
2023-04-25T13:59:49.456Z,17.40
2023-04-25T14:02:34.668Z,16.10
2023-04-25T14:05:20.234Z,15.00
2023-04-25T14:08:10.594Z,14.70
2023-04-25T14:10:56.425Z,14.80
2023-04-25T14:13:41.726Z,15.00
2023-04-25T14:16:27.547Z,15.10
2023-04-25T14:19:12.964Z,15.30
2023-04-25T14:21:58.605Z,15.00
2023-04-25T14:24:43.766Z,14.10
2023-04-25T14:27:29.445Z,13.80
2023-04-25T14:30:15.177Z,14.10
2023-04-25T14:33:00.665Z,13.50
2023-04-25T14:35:45.941Z,13.20
2023-04-25T14:38:31.373Z,12.50
2023-04-25T14:41:17.043Z,11.90
2023-04-25T14:44:02.687Z,10.40
2023-04-25T14:46:48.224Z,10.00
2023-04-25T14:49:34.321Z,9.80
2023-04-25T14:52:19.864Z,10.10
2023-04-25T14:55:08.474Z,10.30
2023-04-25T14:57:57.582Z,10.60
2023-04-25T15:00:45.412Z,10.90
2023-04-25T15:03:31.644Z,11.30
2023-04-25T15:06:17.425Z,12.20
2023-04-25T15:09:02.874Z,11.70
2023-04-25T15:11:48.214Z,11.90
2023-04-25T15:14:35.012Z,12.40
2023-04-25T15:17:20.701Z,13.50
2023-04-25T15:20:13.967Z,14.10
2023-04-25T15:22:59.420Z,14.90
2023-04-25T15:25:45.197Z,16.20
2023-04-25T15:28:30.387Z,16.20
2023-04-25T15:31:16.086Z,17.60
2023-04-25T15:34:01.526Z,17.20
2023-04-25T15:36:46.833Z,17.20
2023-04-25T15:39:32.518Z,17.00
2023-04-25T15:42:18.003Z,16.90
2023-04-25T15:45:05.694Z,17.00
2023-04-25T15:47:53.064Z,17.40
2023-04-25T15:50:38.402Z,17.70
2023-04-25T15:53:23.768Z,18.20
2023-04-25T15:56:09.107Z,16.60
2023-04-25T15:58:55.425Z,16.20
2023-04-25T16:01:41.117Z,15.70
2023-04-25T16:04:27.817Z,14.90
2023-04-25T16:07:14.846Z,14.30
2023-04-25T16:10:00.576Z,14.10
2023-04-25T16:12:48.406Z,14.40
2023-04-25T16:15:35.548Z,13.70
2023-04-25T16:18:21.258Z,15.70
2023-04-25T16:21:06.696Z,13.60
2023-04-25T16:23:52.838Z,13.70
2023-04-25T16:26:38.431Z,13.60
2023-04-25T16:29:23.941Z,13.10
2023-04-25T16:32:09.515Z,13.00
2023-04-25T16:34:55.663Z,12.70
2023-04-25T16:37:42.152Z,12.70
2023-04-25T16:40:27.755Z,13.00
2023-04-25T16:43:13.070Z,13.50
2023-04-25T16:45:59.409Z,13.70
2023-04-25T16:48:45.114Z,14.70
2023-04-25T16:51:30.748Z,14.70
2023-04-25T16:54:16.429Z,13.90
2023-04-25T16:57:01.830Z,13.80
2023-04-25T16:59:47.246Z,13.80
2023-04-25T17:02:33.092Z,13.80
2023-04-25T17:05:18.849Z,14.00
2023-04-25T17:08:04.443Z,13.90
2023-04-25T17:10:50.821Z,13.60
2023-04-25T17:13:36.978Z,13.50
2023-04-25T17:16:25.347Z,13.40
2023-04-25T17:19:10.909Z,13.50
2023-04-25T17:21:56.450Z,13.60
2023-04-25T17:24:41.916Z,13.70
2023-04-25T17:27:27.446Z,13.80
2023-04-25T17:30:13.387Z,14.30
2023-04-25T17:32:59.390Z,13.30
2023-04-25T17:35:44.881Z,13.00
2023-04-25T17:38:30.526Z,13.00
2023-04-25T17:41:15.936Z,12.10
2023-04-25T17:44:01.405Z,12.00
2023-04-25T17:46:47.181Z,12.20
2023-04-25T17:49:33.576Z,12.20
2023-04-25T17:52:19.278Z,12.10
2023-04-25T17:55:07.054Z,12.10
2023-04-25T17:57:52.753Z,12.20
2023-04-25T18:00:39.260Z,12.50
2023-04-25T18:03:24.872Z,12.20
2023-04-25T18:06:10.598Z,12.10
2023-04-25T18:08:57.286Z,12.00
2023-04-25T18:11:44.260Z,12.10
2023-04-25T18:17:31.853Z,12.20
2023-04-25T18:20:17.858Z,12.10
2023-04-25T18:23:03.253Z,12.10
2023-04-25T18:25:52.002Z,12.00
2023-04-25T18:28:37.642Z,12.30
2023-04-25T18:31:25.234Z,11.60
2023-04-25T18:34:11.576Z,11.60
2023-04-25T18:36:57.185Z,11.30
2023-04-25T18:39:42.900Z,11.20
2023-04-25T18:42:28.466Z,11.40
2023-04-25T18:45:14.638Z,11.30
2023-04-25T18:48:02.559Z,11.60
2023-04-25T18:50:48.336Z,11.20
2023-04-25T18:53:33.744Z,11.10
2023-04-25T18:56:21.134Z,10.90
2023-04-25T18:59:07.085Z,13.20
2023-04-25T19:01:53.803Z,10.60
2023-04-25T19:04:39.460Z,10.60
2023-04-25T19:07:25.418Z,10.30
2023-04-25T19:10:11.556Z,10.60
2023-04-25T19:12:57.065Z,10.00
2023-04-25T19:15:42.492Z,10.20
2023-04-25T19:18:27.913Z,10.00
2023-04-25T19:21:13.340Z,10.00
2023-04-25T19:23:59.170Z,10.70
2023-04-25T19:26:44.742Z,9.60
2023-04-25T19:29:32.587Z,9.60
2023-04-25T19:32:18.331Z,9.50
2023-04-25T19:35:04.127Z,9.50
2023-04-25T19:37:50.381Z,9.50
2023-04-25T19:40:36.847Z,9.90
2023-04-25T19:43:22.246Z,9.70
2023-04-25T19:46:07.885Z,9.60
2023-04-25T19:48:53.536Z,9.60
2023-04-25T19:51:39.417Z,9.60
2023-04-25T19:54:24.933Z,9.60
2023-04-25T19:57:10.439Z,9.80
2023-04-25T19:59:56.122Z,10.60
2023-04-25T20:02:45.317Z,9.90
2023-04-25T20:05:32.264Z,9.90
2023-04-25T20:08:17.840Z,9.90
2023-04-25T20:11:03.980Z,9.80
2023-04-25T20:13:50.080Z,9.60
2023-04-25T20:16:36.350Z,9.20
2023-04-25T20:19:21.549Z,9.60
2023-04-25T20:22:07.072Z,9.20
2023-04-25T20:24:52.853Z,10.00
2023-04-25T20:27:38.454Z,9.20
2023-04-25T20:30:24.130Z,9.30
2023-04-25T20:33:09.745Z,9.20
2023-04-25T20:35:55.549Z,9.40
2023-04-25T20:38:41.076Z,9.40
2023-04-25T20:41:26.516Z,10.50
2023-04-25T20:44:13.736Z,9.20
2023-04-25T20:46:59.555Z,9.40
2023-04-25T20:49:45.108Z,9.10
2023-04-25T20:52:31.942Z,8.90
2023-04-25T20:55:17.458Z,9.00
2023-04-25T20:58:03.392Z,8.90
2023-04-25T21:00:50.559Z,8.90
2023-04-25T21:03:36.544Z,9.60
2023-04-25T21:06:21.962Z,9.00
2023-04-25T21:09:07.779Z,9.00
2023-04-25T21:11:53.217Z,8.90
2023-04-25T21:14:38.480Z,9.00
2023-04-25T21:17:24.234Z,8.90
2023-04-25T21:20:11.071Z,9.10
2023-04-25T21:22:56.525Z,8.90
2023-04-25T21:25:43.070Z,8.90
2023-04-25T21:28:28.839Z,9.10
2023-04-25T21:31:14.831Z,8.70
2023-04-25T21:34:00.268Z,8.50
2023-04-25T21:36:45.612Z,8.70
2023-04-25T21:39:31.102Z,10.60
2023-04-25T21:42:16.844Z,8.60
2023-04-25T21:45:05.039Z,8.50
2023-04-25T21:47:51.020Z,8.40
2023-04-25T21:50:37.278Z,8.30
2023-04-25T21:53:22.533Z,8.40
2023-04-25T21:56:08.130Z,8.20
2023-04-25T21:58:53.816Z,8.80
2023-04-25T22:01:39.789Z,8.10
2023-04-25T22:04:25.824Z,8.00
2023-04-25T22:07:12.339Z,8.00
2023-04-25T22:09:57.674Z,8.00
2023-04-25T22:12:43.173Z,8.60
2023-04-25T22:15:30.005Z,8.10
2023-04-25T22:18:16.393Z,8.10
2023-04-25T22:21:02.524Z,8.20
2023-04-25T22:23:47.690Z,9.30
2023-04-25T22:26:34.487Z,8.90
2023-04-25T22:29:19.797Z,8.40
2023-04-25T22:32:05.823Z,8.50
2023-04-25T22:34:51.377Z,8.50
2023-04-25T22:37:36.674Z,8.50
2023-04-25T22:40:22.202Z,8.70
2023-04-25T22:43:07.856Z,8.50
2023-04-25T22:45:53.678Z,8.60
2023-04-25T22:48:39.275Z,8.30
2023-04-25T22:51:24.700Z,8.30
2023-04-25T22:54:10.312Z,7.80
2023-04-25T22:56:56.389Z,7.80
2023-04-25T22:59:42.108Z,7.80
2023-04-25T23:02:27.767Z,8.00
2023-04-25T23:05:14.543Z,7.90
2023-04-25T23:08:00.083Z,7.90
2023-04-25T23:10:45.869Z,7.80
2023-04-25T23:13:31.656Z,7.80
2023-04-25T23:16:17.599Z,7.70
2023-04-25T23:19:03.536Z,7.80
2023-04-25T23:21:49.155Z,9.00
2023-04-25T23:24:39.154Z,7.70
2023-04-25T23:27:24.502Z,7.70
2023-04-25T23:30:11.411Z,7.60
2023-04-25T23:32:56.640Z,7.60
2023-04-25T23:35:41.850Z,7.70
2023-04-25T23:38:27.647Z,7.60
2023-04-25T23:41:13.333Z,8.80
2023-04-25T23:43:58.727Z,7.70
2023-04-25T23:46:44.016Z,7.30
2023-04-25T23:49:29.466Z,8.10
2023-04-25T23:52:14.932Z,7.40
2023-04-25T23:55:00.469Z,7.50
2023-04-25T23:57:45.743Z,8.40
